createdAt,value
2017-11-10T00:08:11.117Z,81.19
2017-11-10T00:28:41.474Z,81.38
2017-11-10T00:49:18.591Z,81.78
2017-11-10T01:09:51.711Z,81.65
2017-11-10T01:30:22.066Z,81.51
2017-11-10T01:50:57.577Z,81.96
2017-11-10T02:11:29.537Z,82.45
2017-11-10T02:32:02.663Z,83.01
2017-11-10T02:52:35.193Z,83.41
2017-11-10T03:13:12.281Z,84.14
2017-11-10T03:33:47.562Z,84.97
2017-11-10T03:54:20.670Z,86.58
2017-11-10T04:14:53.795Z,86.59
2017-11-10T04:35:30.344Z,86.06
2017-11-10T04:56:04.344Z,86.84
2017-11-10T05:16:36.780Z,87.57
2017-11-10T05:37:09.658Z,87.78
2017-11-10T05:57:46.208Z,87.70
2017-11-10T06:18:21.437Z,87.84
2017-11-10T06:38:55.467Z,87.91
2017-11-10T06:59:30.743Z,88.32
2017-11-10T07:38:01.536Z,88.61
2017-11-10T07:58:35.579Z,88.07
2017-11-10T08:19:09.932Z,88.14
2017-11-10T08:39:42.133Z,89.25
2017-11-10T09:00:17.406Z,88.90
2017-11-10T09:20:52.031Z,90.30
2017-11-10T09:41:34.092Z,89.90
2017-11-10T10:02:13.357Z,88.48
2017-11-10T10:23:03.909Z,89.70
2017-11-10T10:43:39.875Z,89.17
2017-11-10T11:04:15.148Z,88.04
2017-11-10T11:24:53.185Z,88.43
2017-11-10T11:45:30.607Z,89.02
2017-11-10T12:06:04.054Z,89.20
2017-11-10T12:26:36.852Z,90.38
2017-11-10T12:47:12.662Z,91.13
2017-11-10T13:07:45.246Z,90.51
2017-11-10T13:28:18.674Z,90.76
2017-11-10T13:48:54.864Z,90.39
2017-11-10T14:09:30.178Z,91.10
2017-11-10T14:30:04.487Z,90.48
2017-11-10T14:50:39.832Z,91.97
2017-11-10T15:11:14.729Z,91.16
2017-11-10T15:31:48.271Z,92.07
2017-11-10T15:52:19.463Z,92.23
2017-11-10T16:12:53.480Z,92.76
2017-11-10T16:33:29.937Z,92.71
2017-11-10T16:54:07.178Z,92.34
2017-11-10T17:14:42.979Z,92.92
2017-11-10T17:35:21.672Z,93.21
2017-11-10T17:55:57.517Z,92.85
2017-11-10T18:16:30.027Z,90.76
2017-11-10T18:37:08.376Z,88.38
2017-11-10T18:57:45.619Z,85.33
2017-11-10T19:18:24.891Z,88.61
2017-11-10T19:38:59.719Z,85.19
2017-11-10T19:59:37.135Z,77.55
2017-11-10T20:20:10.260Z,75.21
2017-11-10T20:40:45.532Z,81.10
2017-11-10T21:01:20.805Z,84.71
2017-11-10T21:21:56.998Z,83.26
2017-11-10T21:42:34.539Z,81.71
2017-11-10T22:03:11.796Z,82.03
2017-11-10T22:23:49.879Z,84.13
2017-11-10T22:44:25.300Z,84.40
2017-11-10T23:05:04.570Z,84.47
2017-11-10T23:25:39.380Z,85.43
2017-11-10T23:46:13.735Z,82.72
